CheckWX is a tool to help pilots better visualize weather data.  It is not intended as a substitute for an official pre-flight weather briefing.

13:29:38 UTC

KROC TAF
Greater Rochester International Airport
Rochester, New York, USA
KROC 041741Z 0418/0518 32004KT P6SM OVC010 FM042300 00000KT P6SM BKN035 FM051300 VRB03KT P6SM OVC025 FM051600 30008KT P6SM BKN015

Apr-4@
18:00 UTC

Apr-4 @ 18:00 UTC

Apr-4@
23:00 UTC

Apr-4 @ 23:00 UTC

TAF KROC 041741Z 0418/0518 32004KT P6SM OVC010

Expired

Wind
  • 320° at 4 KTS
Cloud Levels
  • Overcast at 1,000' AGL

Apr-4@
23:00 UTC

Apr-4 @ 23:00 UTC

Apr-5@
13:00 UTC

Apr-5 @ 13:00 UTC

FM042300 00000KT P6SM BKN035

Expired

Cloud Levels
  • Broken at 3,500' AGL

Apr-5@
13:00 UTC

Apr-5 @ 13:00 UTC

Apr-5@
16:00 UTC

Apr-5 @ 16:00 UTC

FM051300 VRB03KT P6SM OVC025

From

From Standard forecast or significant change

Wind
  • Variable at 3 KTS
Cloud Levels
  • Overcast at 2,500' AGL

Apr-5@
16:00 UTC

Apr-5 @ 16:00 UTC

Apr-5@
18:00 UTC

Apr-5 @ 18:00 UTC

FM051600 30008KT P6SM BKN015

From

From Standard forecast or significant change

Wind
  • 300° at 8 KTS
Cloud Levels
  • Broken at 1,500' AGL